createdAt,value
2018-02-22T00:02:24.339Z,93.43
2018-02-22T00:04:50.118Z,93.74
2018-02-22T00:07:15.930Z,94.11
2018-02-22T00:09:41.698Z,94.42
2018-02-22T00:12:07.470Z,94.49
2018-02-22T00:14:33.270Z,94.79
2018-02-22T00:16:59.043Z,94.82
2018-02-22T00:19:24.817Z,94.57
2018-02-22T00:21:50.596Z,94.77
2018-02-22T00:24:16.371Z,95.18
2018-02-22T00:26:42.183Z,95.01
2018-02-22T00:29:07.958Z,94.73
2018-02-22T00:31:33.778Z,94.51
2018-02-22T00:33:59.594Z,94.26
2018-02-22T00:36:25.378Z,94.29
2018-02-22T00:38:51.157Z,94.18
2018-02-22T00:41:16.947Z,93.84
2018-02-22T00:43:42.711Z,93.90
2018-02-22T00:46:08.494Z,93.92
2018-02-22T00:48:34.304Z,93.94
2018-02-22T00:51:00.070Z,94.06
2018-02-22T00:53:25.869Z,94.20
2018-02-22T00:55:51.930Z,94.55
2018-02-22T00:58:17.703Z,94.60
2018-02-22T01:00:43.479Z,94.35
2018-02-22T01:03:09.276Z,94.21
2018-02-22T01:05:35.055Z,94.08
2018-02-22T01:08:00.827Z,94.18
2018-02-22T01:10:26.610Z,94.30
2018-02-22T01:12:52.378Z,94.10
2018-02-22T01:15:18.166Z,93.99
2018-02-22T01:17:43.944Z,93.69
2018-02-22T01:20:09.731Z,93.56
2018-02-22T01:22:35.518Z,93.32
2018-02-22T01:25:01.297Z,93.53
2018-02-22T01:27:27.070Z,93.50
2018-02-22T01:29:52.869Z,93.51
2018-02-22T01:32:18.712Z,93.50
2018-02-22T01:34:44.485Z,93.75
2018-02-22T01:37:10.282Z,94.21
2018-02-22T01:39:36.050Z,94.00
2018-02-22T01:42:01.822Z,93.87
2018-02-22T01:44:27.607Z,93.62
2018-02-22T01:46:53.390Z,93.14
2018-02-22T01:49:19.486Z,92.73
2018-02-22T01:51:45.266Z,92.66
2018-02-22T01:54:11.035Z,92.61
2018-02-22T01:56:36.839Z,92.84
2018-02-22T01:59:02.623Z,92.98
2018-02-22T02:01:28.423Z,92.83
2018-02-22T02:03:54.226Z,93.13
2018-02-22T02:06:20.006Z,93.68
2018-02-22T02:08:45.832Z,94.16
2018-02-22T02:11:11.658Z,93.54
2018-02-22T02:13:37.450Z,93.06
2018-02-22T02:16:03.230Z,93.23
2018-02-22T02:18:29.011Z,93.45
2018-02-22T02:20:57.512Z,93.54
2018-02-22T02:23:23.285Z,93.53
2018-02-22T02:25:49.086Z,93.46
2018-02-22T02:28:14.878Z,93.43
2018-02-22T02:30:40.663Z,93.73
2018-02-22T02:33:06.498Z,93.74
2018-02-22T02:35:32.303Z,93.55
2018-02-22T02:37:58.090Z,93.73
2018-02-22T02:40:23.903Z,93.81
2018-02-22T02:42:49.694Z,94.15
2018-02-22T02:45:15.488Z,93.89
2018-02-22T02:47:41.293Z,94.42
2018-02-22T02:50:07.083Z,93.94
2018-02-22T02:52:32.891Z,93.76
2018-02-22T02:54:58.698Z,93.75
2018-02-22T02:57:24.486Z,93.82
2018-02-22T02:59:50.303Z,94.09
2018-02-22T03:02:16.695Z,93.43
2018-02-22T03:04:42.480Z,92.67
2018-02-22T03:07:08.286Z,92.72
2018-02-22T03:09:34.077Z,92.80
2018-02-22T03:11:59.862Z,93.23
2018-02-22T03:14:25.671Z,93.55
2018-02-22T03:16:51.456Z,93.80
2018-02-22T03:19:17.248Z,94.03
2018-02-22T03:21:43.348Z,94.05
2018-02-22T03:24:09.122Z,93.54
2018-02-22T03:26:34.894Z,92.97
2018-02-22T03:29:00.692Z,93.13
2018-02-22T03:31:26.469Z,93.44
2018-02-22T03:33:52.243Z,92.99
2018-02-22T03:36:18.074Z,92.86
2018-02-22T03:38:43.864Z,93.18
2018-02-22T03:41:09.654Z,93.24
2018-02-22T03:43:35.470Z,93.24
2018-02-22T03:46:01.317Z,93.45
2018-02-22T03:48:27.050Z,93.14
2018-02-22T03:50:52.854Z,93.24
2018-02-22T03:53:18.639Z,93.06
2018-02-22T03:55:44.419Z,93.31
2018-02-22T03:58:10.223Z,93.82
2018-02-22T04:00:36.008Z,93.79
2018-02-22T04:03:01.935Z,93.88
2018-02-22T04:05:27.750Z,93.71
2018-02-22T04:07:53.539Z,93.53
2018-02-22T04:10:19.322Z,93.57
2018-02-22T04:12:45.379Z,93.46
2018-02-22T04:15:11.162Z,93.61
2018-02-22T04:17:36.952Z,93.78
2018-02-22T04:20:03.774Z,93.96
2018-02-22T04:22:29.579Z,93.80
2018-02-22T04:24:55.355Z,93.42
2018-02-22T04:27:21.160Z,93.05
2018-02-22T04:29:46.934Z,92.93
2018-02-22T04:32:12.713Z,92.71
2018-02-22T04:34:38.713Z,92.78
2018-02-22T04:37:04.482Z,92.42
2018-02-22T04:39:30.265Z,92.84
2018-02-22T04:41:56.051Z,92.83
2018-02-22T04:44:21.846Z,92.54
2018-02-22T04:46:47.614Z,92.91
2018-02-22T04:49:13.422Z,93.10
2018-02-22T04:51:39.210Z,93.20
2018-02-22T04:54:04.991Z,93.45
2018-02-22T04:56:30.783Z,93.55
2018-02-22T04:58:56.558Z,94.03
2018-02-22T05:01:22.378Z,94.20
2018-02-22T05:03:48.179Z,94.42
2018-02-22T05:06:13.954Z,94.45
2018-02-22T05:08:39.726Z,94.02
2018-02-22T05:11:05.532Z,94.33
2018-02-22T05:13:31.302Z,94.62
2018-02-22T05:15:57.074Z,94.57
2018-02-22T05:18:23.238Z,94.73
2018-02-22T05:20:49.025Z,94.58
2018-02-22T05:23:14.810Z,94.28
2018-02-22T05:25:40.596Z,94.66
2018-02-22T05:28:06.375Z,94.55
2018-02-22T05:30:32.178Z,94.52
2018-02-22T05:32:57.950Z,94.68
2018-02-22T05:35:23.733Z,94.64
2018-02-22T05:37:49.530Z,94.82
2018-02-22T05:40:15.307Z,95.08
2018-02-22T05:42:41.079Z,95.10
2018-02-22T05:45:07.236Z,94.88
2018-02-22T05:47:33.024Z,94.78
2018-02-22T05:49:58.800Z,94.80
2018-02-22T05:52:24.695Z,94.39
2018-02-22T05:54:50.457Z,94.29
2018-02-22T05:57:16.234Z,94.52
2018-02-22T05:59:42.236Z,94.42
2018-02-22T06:02:08.014Z,93.99
2018-02-22T06:04:34.088Z,93.67
2018-02-22T06:07:00.218Z,93.08
2018-02-22T06:09:25.999Z,93.26
2018-02-22T06:11:51.805Z,92.76
2018-02-22T06:14:17.598Z,92.83
2018-02-22T06:16:43.375Z,92.79
2018-02-22T06:19:09.143Z,92.78
2018-02-22T06:21:34.949Z,92.47
2018-02-22T06:24:00.758Z,92.35
2018-02-22T06:26:26.543Z,92.97
2018-02-22T06:28:52.314Z,93.08
2018-02-22T06:31:18.114Z,93.29
2018-02-22T06:33:43.914Z,93.32
2018-02-22T06:36:09.703Z,93.71
2018-02-22T06:38:35.511Z,94.12
2018-02-22T06:41:01.304Z,94.09
2018-02-22T06:43:27.092Z,93.91
2018-02-22T06:45:52.915Z,93.82
2018-02-22T06:48:18.703Z,93.93
2018-02-22T06:50:44.486Z,93.97
2018-02-22T06:53:10.270Z,93.90
2018-02-22T06:55:36.054Z,94.03
2018-02-22T06:58:01.871Z,93.96
2018-02-22T07:00:27.671Z,93.62
2018-02-22T07:02:53.442Z,93.47
2018-02-22T07:05:19.245Z,93.69
2018-02-22T07:07:45.018Z,94.11
2018-02-22T07:10:10.803Z,94.19
2018-02-22T07:12:36.611Z,94.06
2018-02-22T07:15:02.422Z,94.17
2018-02-22T07:17:28.215Z,94.18
2018-02-22T07:19:54.031Z,94.32
2018-02-22T07:22:19.807Z,94.32
2018-02-22T07:24:46.000Z,94.28
2018-02-22T07:29:44.671Z,94.25
2018-02-22T07:32:10.464Z,94.29
2018-02-22T07:34:36.540Z,94.04
2018-02-22T07:37:02.367Z,94.29
2018-02-22T07:39:28.163Z,94.71
2018-02-22T07:41:54.006Z,93.97
2018-02-22T07:44:19.795Z,93.93
2018-02-22T07:46:45.588Z,93.92
2018-02-22T07:49:11.651Z,93.81
2018-02-22T07:51:37.418Z,93.89
2018-02-22T07:54:03.258Z,94.01
2018-02-22T07:56:29.307Z,93.57
2018-02-22T07:58:55.087Z,93.68
2018-02-22T08:01:20.865Z,93.82
2018-02-22T08:03:46.976Z,93.64
2018-02-22T08:06:12.769Z,93.19
2018-02-22T08:08:38.551Z,93.55
2018-02-22T08:11:04.531Z,93.26
2018-02-22T08:13:30.311Z,93.11
2018-02-22T08:15:56.086Z,92.62
2018-02-22T08:18:21.882Z,92.31
2018-02-22T08:20:47.678Z,92.26
2018-02-22T08:23:13.474Z,91.09
2018-02-22T08:25:39.270Z,92.29
2018-02-22T08:28:05.050Z,92.19
2018-02-22T08:30:30.978Z,91.85
2018-02-22T08:32:56.775Z,89.12
2018-02-22T08:35:22.571Z,88.03
2018-02-22T08:37:48.375Z,89.30
2018-02-22T08:40:14.153Z,89.52
2018-02-22T08:42:40.031Z,89.75
2018-02-22T08:45:05.842Z,90.24
2018-02-22T08:47:31.621Z,90.68
2018-02-22T08:49:57.431Z,89.46
2018-02-22T08:52:23.218Z,89.59
2018-02-22T08:54:49.010Z,90.28
2018-02-22T08:57:14.798Z,89.25
2018-02-22T08:59:40.574Z,86.68
2018-02-22T09:02:06.352Z,87.09
2018-02-22T09:04:32.156Z,88.69
2018-02-22T09:06:57.942Z,87.24
2018-02-22T09:09:23.715Z,88.18
2018-02-22T09:11:49.532Z,88.16
2018-02-22T09:14:15.328Z,88.73
2018-02-22T09:16:41.123Z,89.38
2018-02-22T09:19:06.947Z,89.35
2018-02-22T09:21:32.760Z,89.20
2018-02-22T09:23:58.570Z,89.25
2018-02-22T09:26:24.930Z,87.27
2018-02-22T09:28:50.756Z,86.09
2018-02-22T09:31:16.565Z,86.12
2018-02-22T09:33:42.555Z,86.62
2018-02-22T09:36:08.355Z,88.30
2018-02-22T09:38:34.138Z,86.69
2018-02-22T09:40:59.930Z,87.07
2018-02-22T09:43:25.723Z,87.71
2018-02-22T09:45:51.543Z,88.37
2018-02-22T09:48:17.318Z,88.59
2018-02-22T09:50:43.124Z,88.49
2018-02-22T09:53:08.930Z,88.65
2018-02-22T09:55:34.700Z,88.70
2018-02-22T09:58:00.485Z,89.38
2018-02-22T10:00:26.278Z,88.55
2018-02-22T10:02:59.294Z,88.56
2018-02-22T10:05:25.100Z,88.76
2018-02-22T10:07:50.879Z,88.51
2018-02-22T10:10:16.995Z,88.25
2018-02-22T10:12:42.774Z,88.26
2018-02-22T10:15:08.570Z,88.08
2018-02-22T10:17:34.359Z,87.50
2018-02-22T10:20:00.362Z,87.90
2018-02-22T10:22:26.171Z,87.69
2018-02-22T10:24:51.946Z,87.62
2018-02-22T10:27:17.834Z,87.66
2018-02-22T10:29:43.592Z,87.28
2018-02-22T10:32:09.391Z,87.86
2018-02-22T10:34:35.588Z,86.92
2018-02-22T10:37:01.366Z,87.33
2018-02-22T10:39:27.155Z,87.43
2018-02-22T10:41:53.112Z,88.06
2018-02-22T10:44:18.915Z,88.20
2018-02-22T10:46:44.694Z,87.48
2018-02-22T10:49:10.502Z,86.89
2018-02-22T10:51:36.275Z,87.06
2018-02-22T10:54:02.082Z,85.73
2018-02-22T10:56:27.883Z,84.99
2018-02-22T10:58:53.676Z,85.94
2018-02-22T11:01:25.590Z,85.75
2018-02-22T11:03:58.343Z,86.02
2018-02-22T11:06:24.149Z,85.31
2018-02-22T11:08:49.933Z,84.24
2018-02-22T11:11:15.747Z,84.81
2018-02-22T11:13:41.515Z,84.39
2018-02-22T11:16:07.305Z,84.62
2018-02-22T11:18:33.321Z,84.51
2018-02-22T11:20:59.100Z,83.88
2018-02-22T11:23:24.887Z,83.27
2018-02-22T11:25:50.673Z,82.30
2018-02-22T11:28:16.459Z,82.94
2018-02-22T11:30:42.267Z,82.18
2018-02-22T11:33:08.056Z,81.61
2018-02-22T11:35:33.830Z,81.76
2018-02-22T11:37:59.962Z,81.56
2018-02-22T11:40:25.751Z,81.01
2018-02-22T11:42:51.538Z,79.53
2018-02-22T11:45:17.347Z,79.33
2018-02-22T11:47:43.128Z,80.39
2018-02-22T11:50:08.919Z,81.04
2018-02-22T11:52:34.714Z,80.65
2018-02-22T11:55:01.108Z,80.63
2018-02-22T11:57:28.155Z,81.11
2018-02-22T11:59:54.594Z,81.59
2018-02-22T12:02:21.638Z,80.71
2018-02-22T12:04:50.515Z,79.47
2018-02-22T12:07:17.368Z,80.03
2018-02-22T12:09:43.904Z,81.41
2018-02-22T12:12:10.233Z,78.91
2018-02-22T12:14:38.922Z,78.71
2018-02-22T12:17:05.353Z,76.75
2018-02-22T12:19:31.606Z,77.48
2018-02-22T12:21:58.524Z,77.91
2018-02-22T12:24:25.058Z,78.93
2018-02-22T12:26:51.904Z,77.37
2018-02-22T12:29:18.650Z,77.99
2018-02-22T12:31:45.384Z,78.55
2018-02-22T12:34:11.714Z,77.54
2018-02-22T12:36:37.592Z,77.30
2018-02-22T12:39:03.435Z,79.06
2018-02-22T12:41:30.402Z,79.62
2018-02-22T12:43:56.323Z,78.32
2018-02-22T12:46:22.175Z,79.98
2018-02-22T12:48:48.014Z,79.33
2018-02-22T12:51:14.084Z,79.71
2018-02-22T12:53:40.364Z,78.89
2018-02-22T12:56:06.434Z,78.88
2018-02-22T12:58:32.477Z,79.42
2018-02-22T13:00:58.431Z,80.16
2018-02-22T13:03:24.275Z,80.59
2018-02-22T13:05:50.090Z,78.72
2018-02-22T13:08:15.891Z,78.46
2018-02-22T13:10:41.681Z,78.89
2018-02-22T13:13:07.761Z,76.76
2018-02-22T13:15:33.571Z,76.62
2018-02-22T13:17:59.371Z,77.71
2018-02-22T13:20:25.234Z,76.46
2018-02-22T13:22:51.210Z,76.11
2018-02-22T13:25:17.068Z,77.49
2018-02-22T13:27:42.892Z,76.56
2018-02-22T13:30:08.705Z,76.29
2018-02-22T13:32:47.076Z,77.04
2018-02-22T13:35:13.871Z,76.79
2018-02-22T13:40:47.166Z,77.73
2018-02-22T13:43:13.098Z,77.70
2018-02-22T13:45:39.630Z,77.87
2018-02-22T13:48:05.659Z,73.81
2018-02-22T13:50:43.973Z,73.39
2018-02-22T13:53:09.847Z,75.12
2018-02-22T13:55:35.741Z,73.75
2018-02-22T13:58:01.561Z,76.15
2018-02-22T14:00:39.858Z,73.83
2018-02-22T14:03:05.680Z,73.94
2018-02-22T14:05:31.527Z,76.05
2018-02-22T14:07:57.355Z,77.44
2018-02-22T14:10:23.218Z,78.25
2018-02-22T14:12:49.113Z,77.72
2018-02-22T14:17:41.347Z,76.43
2018-02-22T14:20:07.181Z,76.64
2018-02-22T14:22:33.024Z,76.29
2018-02-22T14:24:58.819Z,76.60
2018-02-22T14:27:24.609Z,77.68
2018-02-22T14:29:50.429Z,75.80
2018-02-22T14:32:16.207Z,76.56
2018-02-22T14:34:42.368Z,75.99
2018-02-22T14:37:08.164Z,74.78
2018-02-22T14:39:33.960Z,73.96
2018-02-22T14:41:59.846Z,74.04
2018-02-22T14:44:25.694Z,74.02
2018-02-22T14:46:51.461Z,74.19
2018-02-22T14:49:17.556Z,75.69
2018-02-22T14:51:43.351Z,76.79
2018-02-22T14:56:35.458Z,78.19
2018-02-22T14:59:01.243Z,76.61
2018-02-22T15:01:27.114Z,74.12
2018-02-22T15:03:52.866Z,72.84
2018-02-22T15:06:18.976Z,71.75
2018-02-22T15:08:45.816Z,72.04
2018-02-22T15:11:12.556Z,72.64
2018-02-22T15:13:39.499Z,73.15
2018-02-22T15:16:05.347Z,71.07
2018-02-22T15:18:31.133Z,71.97
2018-02-22T15:20:56.915Z,71.32
2018-02-22T15:23:22.790Z,69.88
2018-02-22T15:25:48.616Z,71.91
2018-02-22T15:28:14.415Z,74.53
2018-02-22T15:30:40.207Z,79.70
2018-02-22T15:33:05.983Z,72.84
2018-02-22T15:35:32.380Z,74.80
2018-02-22T15:37:58.227Z,71.92
2018-02-22T15:40:24.022Z,71.47
2018-02-22T15:42:49.900Z,74.17
2018-02-22T15:45:15.719Z,73.02
2018-02-22T15:47:41.503Z,72.78
2018-02-22T15:50:07.299Z,72.47
2018-02-22T15:52:33.125Z,72.88
2018-02-22T15:54:58.967Z,71.48
2018-02-22T15:57:24.716Z,73.74
2018-02-22T15:59:50.542Z,71.75
2018-02-22T16:02:16.374Z,73.48
2018-02-22T16:04:49.196Z,74.27
2018-02-22T16:07:15.000Z,73.22
2018-02-22T16:09:40.778Z,72.85
2018-02-22T16:12:06.567Z,72.24
2018-02-22T16:14:32.392Z,71.83
2018-02-22T16:16:58.162Z,71.42
2018-02-22T16:19:23.942Z,72.24
2018-02-22T16:21:49.724Z,70.52
2018-02-22T16:24:15.531Z,70.89
2018-02-22T16:26:41.307Z,71.73
2018-02-22T16:29:07.132Z,70.39
2018-02-22T16:31:32.934Z,71.74
2018-02-22T16:33:58.755Z,76.67
2018-02-22T16:36:24.537Z,73.92
2018-02-22T16:38:50.318Z,76.58
2018-02-22T16:41:16.109Z,69.53
2018-02-22T16:43:41.891Z,71.74
2018-02-22T16:46:07.715Z,71.62
2018-02-22T16:48:33.515Z,71.79
2018-02-22T16:50:59.311Z,70.36
2018-02-22T16:53:25.118Z,71.36
2018-02-22T16:55:50.908Z,70.33
2018-02-22T16:58:16.722Z,71.42
2018-02-22T17:00:42.772Z,72.95
2018-02-22T17:03:15.545Z,73.12
2018-02-22T17:05:41.330Z,74.02
2018-02-22T17:08:07.136Z,73.54
2018-02-22T17:10:32.938Z,73.87
2018-02-22T17:12:59.127Z,75.98
2018-02-22T17:15:24.936Z,78.21
2018-02-22T17:17:50.716Z,81.97
2018-02-22T17:20:16.505Z,83.77
2018-02-22T17:22:42.314Z,80.78
2018-02-22T17:25:08.082Z,79.89
2018-02-22T17:27:39.775Z,81.33
2018-02-22T17:30:11.733Z,81.77
2018-02-22T17:32:37.539Z,81.73
2018-02-22T17:35:04.319Z,81.76
2018-02-22T17:37:32.095Z,82.39
2018-02-22T17:40:02.700Z,82.33
2018-02-22T17:42:39.246Z,83.42
2018-02-22T17:45:05.215Z,83.77
2018-02-22T17:47:31.026Z,84.20
2018-02-22T17:49:56.806Z,83.57
2018-02-22T17:52:22.613Z,82.87
2018-02-22T17:54:48.472Z,82.76
2018-02-22T17:57:14.299Z,82.93
2018-02-22T17:59:40.099Z,83.65
2018-02-22T18:02:05.891Z,83.81
2018-02-22T18:04:31.677Z,83.57
2018-02-22T18:06:57.502Z,84.12
2018-02-22T18:09:23.321Z,84.39
2018-02-22T18:11:49.129Z,84.46
2018-02-22T18:14:15.207Z,84.52
2018-02-22T18:16:41.052Z,84.47
2018-02-22T18:19:06.862Z,84.18
2018-02-22T18:21:32.629Z,83.73
2018-02-22T18:23:58.412Z,84.11
2018-02-22T18:26:24.203Z,84.42
2018-02-22T18:28:50.034Z,84.62
2018-02-22T18:31:15.823Z,84.90
2018-02-22T18:33:41.855Z,84.99
2018-02-22T18:36:07.664Z,85.03
2018-02-22T18:38:39.507Z,85.08
2018-02-22T18:41:05.349Z,85.30
2018-02-22T18:43:41.074Z,85.25
2018-02-22T18:46:06.858Z,85.25
2018-02-22T18:48:32.759Z,85.56
2018-02-22T18:50:58.675Z,85.56
2018-02-22T18:53:24.466Z,85.68
2018-02-22T18:55:50.604Z,85.46
2018-02-22T18:58:16.395Z,85.36
2018-02-22T19:00:42.195Z,85.35
2018-02-22T19:03:08.005Z,85.57
2018-02-22T19:05:33.800Z,85.50
2018-02-22T19:07:59.603Z,85.30
2018-02-22T19:10:25.427Z,85.31
2018-02-22T19:12:51.234Z,85.73
2018-02-22T19:15:17.036Z,85.59
2018-02-22T19:17:42.849Z,85.06
2018-02-22T19:20:08.690Z,83.98
2018-02-22T19:22:34.571Z,84.34
2018-02-22T19:25:00.351Z,84.18
2018-02-22T19:27:26.144Z,84.41
2018-02-22T19:29:51.935Z,84.41
2018-02-22T19:32:17.721Z,84.61
2018-02-22T19:34:43.597Z,84.45
2018-02-22T19:37:09.425Z,84.74
2018-02-22T19:39:35.213Z,84.87
2018-02-22T19:42:01.016Z,85.13
2018-02-22T19:44:27.069Z,84.62
2018-02-22T19:46:52.855Z,84.25
2018-02-22T19:49:18.643Z,84.41
2018-02-22T19:51:44.439Z,84.56
2018-02-22T19:54:10.227Z,84.49
2018-02-22T19:56:36.015Z,83.78
2018-02-22T19:59:01.859Z,84.19
2018-02-22T20:01:27.672Z,84.01
2018-02-22T20:03:53.459Z,84.10
2018-02-22T20:06:19.290Z,84.21
2018-02-22T20:08:45.099Z,84.14
2018-02-22T20:11:11.779Z,84.23
2018-02-22T20:13:37.965Z,84.11
2018-02-22T20:16:03.786Z,83.78
2018-02-22T20:18:29.614Z,83.83
2018-02-22T20:20:55.777Z,84.19
2018-02-22T20:23:21.559Z,84.07
2018-02-22T20:25:47.364Z,83.94
2018-02-22T20:28:13.227Z,84.24
2018-02-22T20:30:39.030Z,83.98
2018-02-22T20:33:06.827Z,84.39
2018-02-22T20:35:32.615Z,84.13
2018-02-22T20:37:58.516Z,83.63
2018-02-22T20:40:25.168Z,83.13
2018-02-22T20:42:51.980Z,83.71
2018-02-22T20:45:17.903Z,84.02
2018-02-22T20:47:43.756Z,83.47
2018-02-22T20:50:11.507Z,83.60
2018-02-22T20:52:39.138Z,83.68
2018-02-22T20:55:07.924Z,82.93
2018-02-22T20:57:33.779Z,83.61
2018-02-22T20:59:59.843Z,83.50
2018-02-22T21:02:27.236Z,83.59
2018-02-22T21:04:53.305Z,83.66
2018-02-22T21:07:19.217Z,83.48
2018-02-22T21:09:45.199Z,83.27
2018-02-22T21:12:11.940Z,83.00
2018-02-22T21:14:37.927Z,83.78
2018-02-22T21:17:03.734Z,83.53
2018-02-22T21:19:29.532Z,83.81
2018-02-22T21:21:55.431Z,83.73
2018-02-22T21:24:21.537Z,83.87
2018-02-22T21:26:47.522Z,84.25
2018-02-22T21:29:13.453Z,84.07
2018-02-22T21:31:39.453Z,84.60
2018-02-22T21:34:05.562Z,84.50
2018-02-22T21:36:31.555Z,84.34
2018-02-22T21:38:57.570Z,84.94
2018-02-22T21:41:23.395Z,85.29
2018-02-22T21:43:49.188Z,84.98
2018-02-22T21:46:15.258Z,84.74
2018-02-22T21:48:41.518Z,84.75
2018-02-22T21:51:07.759Z,84.59
2018-02-22T21:53:33.566Z,84.78
2018-02-22T21:55:59.415Z,85.17
2018-02-22T21:58:25.454Z,84.81
2018-02-22T22:00:51.492Z,85.15
2018-02-22T22:03:17.736Z,85.46
2018-02-22T22:05:43.995Z,85.47
2018-02-22T22:08:10.002Z,85.42
2018-02-22T22:10:36.164Z,85.59
2018-02-22T22:13:02.091Z,86.13
2018-02-22T22:15:28.107Z,86.56
2018-02-22T22:17:54.539Z,86.33
2018-02-22T22:20:20.552Z,86.82
2018-02-22T22:22:47.476Z,86.94
2018-02-22T22:25:13.321Z,86.94
2018-02-22T22:27:39.472Z,87.07
2018-02-22T22:30:05.557Z,87.24
2018-02-22T22:32:31.988Z,86.78
2018-02-22T22:34:58.057Z,87.34
2018-02-22T22:37:24.391Z,87.24
2018-02-22T22:39:50.187Z,87.42
2018-02-22T22:42:16.483Z,87.33
2018-02-22T22:44:42.291Z,87.18
2018-02-22T22:47:08.282Z,87.37
2018-02-22T22:49:34.063Z,87.76
2018-02-22T22:51:59.872Z,87.78
2018-02-22T22:54:25.662Z,87.93
2018-02-22T22:56:51.480Z,87.99
2018-02-22T22:59:17.399Z,88.45
2018-02-22T23:01:43.212Z,88.31
2018-02-22T23:04:09.115Z,88.16
2018-02-22T23:06:34.898Z,87.48
2018-02-22T23:09:00.693Z,87.88
2018-02-22T23:11:26.477Z,87.69
2018-02-22T23:13:52.270Z,88.18
2018-02-22T23:16:18.979Z,87.41
2018-02-22T23:18:44.787Z,90.94
2018-02-22T23:21:10.815Z,91.10
2018-02-22T23:23:36.594Z,81.63
2018-02-22T23:26:02.552Z,79.70
2018-02-22T23:28:28.524Z,80.48
2018-02-22T23:30:54.458Z,77.31
2018-02-22T23:33:21.926Z,77.58
2018-02-22T23:35:47.849Z,74.63
2018-02-22T23:38:13.667Z,75.38
2018-02-22T23:40:44.822Z,74.59
2018-02-22T23:43:10.628Z,75.29
2018-02-22T23:45:36.549Z,74.77
2018-02-22T23:48:02.687Z,74.51
2018-02-22T23:50:28.612Z,74.16
2018-02-22T23:52:54.438Z,75.36
2018-02-22T23:55:20.635Z,72.67
2018-02-22T23:57:46.415Z,71.11
